Estación Meteorológica Peña el Pijo (Robertgarden) [ 09/24/17 17:52:32 CEST ]

Fecha Hora Presion(HPa) Temp (°C) Humedad % Rocio (°C) Viento ( m/s) Direccion Lluvia 1Hora(mm) Lluvia 24H(mm) LLuvia Total(mm)
2017-Aug-21 01:01:45 1015.500 19.0 74 14.2         1439.00
2017-Aug-21 02:01:51 1015.600 17.4 76 13.1         1439.00
2017-Aug-21 03:01:08 1015.400 16.5 79 12.8         1439.00
2017-Aug-21 04:01:10 1015.200 15.8 81 12.6         1439.00
2017-Aug-21 05:01:07 1014.800 15.1 83 12.2         1439.00
2017-Aug-21 06:01:09 1014.600 14.6 84 11.9         1439.00
2017-Aug-21 07:01:51 1014.700 14.1 85 11.6         1439.00
2017-Aug-21 08:01:42 1014.700 14.0 86 11.7         1439.00
2017-Aug-21 09:01:47 1014.700 17.6 86 15.2         1439.00
2017-Aug-21 10:01:47 1014.700 22.5 73 17.4         1439.00
2017-Aug-21 11:01:46 1014.700 26.1 56 16.6         1439.00
2017-Aug-21 12:01:39 1014.600 29.2 50 17.8         1439.00
2017-Aug-21 13:01:43 1014.100 32.3 40 17.0         1439.00
2017-Aug-21 14:01:47 1013.600 33.2 38 16.9         1439.00
2017-Aug-21 15:01:42 1013.300 33.6 34 15.5 0.9 SSE     1439.00
2017-Aug-21 16:01:50 1012.700 35.6 30 15.4 0.1 ENE     1439.00
2017-Aug-21 17:01:34 1012.300 34.3 31 14.7         1439.00
2017-Aug-21 18:01:45 1012.300 32.0 35 14.5         1439.00
2017-Aug-21 19:01:36 1012.100 30.4 41 15.7         1439.00
2017-Aug-21 20:01:50 1012.400 27.4 47 15.0         1439.00
2017-Aug-21 21:01:53 1012.900 25.1 53 14.8         1439.00
2017-Aug-21 22:01:33 1013.800 23.3 61 15.3 3.6 S     1439.00
2017-Aug-21 23:01:56 1014.200 21.8 67 15.4         1439.00

Temperatura Máxima:35°    Temperatura Mínima:14°
Presión Máxima:1015.600 Hpa    Presión Mínima:1012.100 Hpa


Volver